Time;durP1;ratioP1;P1;durP2;ratioP2;P2;SDS_P1;SDS_P2;PMS_P1;PMS_P2;Temp;Humidity;BMP_temperature;BMP_pressure;BME280_temperature;BME280_humidity;BME280_pressure;Samples;Min_cycle;Max_cycle;Signal;HPM_P1;HPM_P2
2022/03/05 07:21:22;;;;;;;4.43;4.03;;;;;;;8.28;35.62;94311.59;2404349;54;52231;-74
2022/03/05 07:23:51;;;;;;;10.03;5.63;;;;;;;8.21;35.80;94250.69;2612938;54;20294;-77
2022/03/05 07:26:20;;;;;;;4.60;4.30;;;;;;;6.83;37.99;94287.81;2613437;54;20276;-74
2022/03/05 07:28:50;;;;;;;5.17;4.67;;;;;;;6.29;39.13;94308.75;2612941;54;20179;-74
2022/03/05 07:31:18;;;;;;;8.20;5.47;;;;;;;6.36;39.90;94307.66;2614306;39;20664;-73
2022/03/05 07:33:47;;;;;;;6.37;4.80;;;;;;;4.95;41.95;94299.91;2613912;54;20773;-73
2022/03/05 07:36:16;;;;;;;3.50;3.20;;;;;;;6.18;48.11;94304.81;2614467;54;20149;-75
2022/03/05 07:38:47;;;;;;;5.33;4.80;;;;;;;5.83;39.42;94299.75;2616335;47;20172;-75
2022/03/05 07:41:16;;;;;;;4.13;3.83;;;;;;;5.24;41.36;94299.16;2615796;54;20232;-76
2022/03/05 07:43:45;;;;;;;11.23;4.17;;;;;;;5.94;43.17;94301.66;2615991;47;20211;-76
2022/03/05 07:46:14;;;;;;;4.77;4.37;;;;;;;6.11;40.39;94265.81;2616026;47;20145;-76
2022/03/05 07:48:42;;;;;;;9.10;3.37;;;;;;;5.69;47.03;94279.44;2615627;47;20153;-74
2022/03/05 07:51:17;;;;;;;3.33;2.97;;;;;;;6.98;47.23;94301.06;2615853;54;20161;-74
2022/03/05 07:53:48;;;;;;;7.60;4.40;;;;;;;6.43;40.02;94256.63;2615919;54;21060;-75
2022/03/05 07:56:17;;;;;;;5.23;4.17;;;;;;;6.32;39.20;94301.88;2615679;54;20155;-73
2022/03/05 07:58:46;;;;;;;3.70;3.50;;;;;;;5.15;43.57;94277.69;2616059;54;20157;-73
2022/03/05 08:01:15;;;;;;;7.67;5.00;;;;;;;5.36;40.86;94299.72;2615743;47;20236;-75
2022/03/05 08:03:43;;;;;;;4.50;4.17;;;;;;;4.72;42.02;94235.69;2616284;39;20547;-76
2022/03/05 08:06:12;;;;;;;4.47;2.53;;;;;;;6.26;47.08;94307.25;2616230;47;20203;-75
2022/03/05 08:08:42;;;;;;;5.30;3.70;;;;;;;5.50;43.39;94145.16;2616635;39;20577;-77
2022/03/05 08:11:14;;;;;;;4.40;4.00;;;;;;;6.22;41.02;94262.81;2616142;47;20643;-78
2022/03/05 08:13:43;;;;;;;5.93;5.33;;;;;;;6.10;40.28;94287.59;2616203;47;20950;-72
2022/03/05 08:16:11;;;;;;;4.57;4.22;;;;;;;5.47;43.39;94298.09;2615819;54;20391;-77
2022/03/05 08:18:40;;;;;;;5.63;3.83;;;;;;;4.84;41.18;94298.00;2616346;51;20244;-76
2022/03/05 08:21:09;;;;;;;9.00;4.30;;;;;;;3.78;42.17;94147.13;2615751;47;20235;-79
2022/03/05 08:23:38;;;;;;;4.37;3.63;;;;;;;5.61;40.96;94307.91;2616219;47;20153;-77
2022/03/05 08:26:13;;;;;;;5.03;2.90;;;;;;;4.45;45.58;94211.28;2616322;47;20157;-75
2022/03/05 08:28:47;;;;;;;3.73;3.53;;;;;;;4.95;42.26;94168.03;2616009;46;20159;-75
2022/03/05 08:31:17;;;;;;;4.60;4.10;;;;;;;5.45;41.62;94269.94;2616008;47;20243;-76
2022/03/05 08:33:46;;;;;;;4.97;4.47;;;;;;;6.52;40.94;94302.00;2616336;54;20164;-74
2022/03/05 08:36:15;;;;;;;6.32;5.68;;;;;;;5.85;40.42;94285.78;2615654;47;20384;-77
2022/03/05 08:38:43;;;;;;;5.63;4.37;;;;;;;4.79;42.58;94304.75;2616054;54;20648;-72
2022/03/05 08:41:12;;;;;;;5.93;4.93;;;;;;;4.36;44.04;94260.66;2615615;54;20682;-74
2022/03/05 08:43:42;;;;;;;4.47;3.27;;;;;;;4.09;45.20;94241.81;2616163;47;20161;-73
2022/03/05 08:46:13;;;;;;;5.37;4.37;;;;;;;3.78;44.90;94236.75;2616141;54;20837;-73
2022/03/05 08:48:45;;;;;;;5.23;4.77;;;;;;;3.81;45.34;94274.72;2616039;54;20208;-74
2022/03/05 08:51:14;;;;;;;4.53;3.80;;;;;;;3.98;47.60;94303.56;2616144;47;20252;-76
2022/03/05 08:53:42;;;;;;;11.00;3.50;;;;;;;3.77;48.01;94263.31;2616174;54;20164;-74
2022/03/05 08:56:11;;;;;;;3.60;3.07;;;;;;;3.54;47.80;94215.94;2616839;31;20634;-74
2022/03/05 08:58:40;;;;;;;4.97;4.60;;;;;;;3.88;47.47;94206.44;2616068;54;20149;-74
2022/03/05 09:01:09;;;;;;;5.40;3.30;;;;;;;3.68;50.96;94275.47;2615578;54;20157;-74
2022/03/05 09:03:40;;;;;;;4.17;3.87;;;;;;;3.82;51.83;94300.66;2616263;54;20157;-75
2022/03/05 09:06:08;;;;;;;7.57;4.57;;;;;;;3.61;52.06;94307.28;2616574;47;20176;-76
2022/03/05 09:08:38;;;;;;;2.83;2.63;;;;;;;2.85;54.01;94203.94;2615749;47;20160;-76
2022/03/05 09:11:06;;;;;;;8.00;5.87;;;;;;;4.12;51.82;94307.06;2616577;47;20269;-75
2022/03/05 09:13:35;;;;;;;4.53;2.80;;;;;;;4.39;52.65;94317.53;2616506;54;20145;-74
2022/03/05 09:16:04;;;;;;;4.90;3.40;;;;;;;3.29;53.13;94171.94;2616566;54;20244;-76
2022/03/05 09:18:32;;;;;;;2.47;2.33;;;;;;;4.37;53.02;94297.81;2616758;47;20752;-74
2022/03/05 09:21:04;;;;;;;3.37;3.07;;;;;;;4.24;53.34;94271.97;2616291;47;20238;-78
2022/03/05 09:23:32;;;;;;;8.03;4.73;;;;;;;4.83;53.09;94305.69;2614851;47;20240;-76
2022/03/05 09:26:02;;;;;;;4.23;3.83;;;;;;;3.43;55.63;94208.34;2614772;47;20149;-73
2022/03/05 09:28:30;;;;;;;6.07;2.93;;;;;;;2.80;56.33;94116.28;2615143;52;20153;-74
2022/03/05 09:30:59;;;;;;;3.90;1.93;;;;;;;3.53;57.81;94256.47;2615347;54;20160;-74
2022/03/05 09:33:28;;;;;;;6.47;1.53;;;;;;;4.92;55.97;94292.78;2616437;47;20160;-73
2022/03/05 09:35:56;;;;;;;5.40;2.53;;;;;;;4.43;55.17;94296.03;2616345;47;20176;-74
2022/03/05 09:38:28;;;;;;;6.37;4.97;;;;;;;4.15;55.88;94289.75;2616192;54;20161;-74
2022/03/05 09:40:56;;;;;;;2.10;2.07;;;;;;;4.76;54.51;94294.81;2615914;54;20271;-73
2022/03/05 09:43:35;;;;;;;3.23;2.97;;;;;;;4.69;53.18;94223.66;2615802;46;20240;-74
2022/03/05 09:46:05;;;;;;;4.50;4.17;;;;;;;4.49;53.44;94287.94;2615923;54;20255;-74
2022/03/05 09:48:34;;;;;;;4.77;4.30;;;;;;;3.70;54.39;94194.31;2615582;54;20144;-74
2022/03/05 09:51:03;;;;;;;3.20;3.07;;;;;;;4.01;55.67;94258.22;2615832;47;20165;-75
2022/03/05 09:53:35;;;;;;;1.97;1.87;;;;;;;5.43;55.40;94281.09;2615099;47;20146;-73
2022/03/05 09:56:04;;;;;;;2.60;2.43;;;;;;;5.49;53.18;94284.88;2615867;54;20184;-72
2022/03/05 09:58:32;;;;;;;3.60;3.07;;;;;;;4.79;54.36;94260.59;2615984;54;20155;-71
2022/03/05 10:01:01;;;;;;;5.50;5.00;;;;;;;4.63;53.77;94268.25;2615528;47;20921;-71
2022/03/05 10:03:30;;;;;;;4.20;3.87;;;;;;;4.43;55.02;94282.00;2615678;54;20295;-76
2022/03/05 10:06:17;;;;;;;4.57;3.67;;;;;;;2.46;56.25;94075.34;2615853;54;20955;-76
2022/03/05 10:08:51;;;;;;;3.13;2.93;;;;;;;3.96;58.04;94273.38;2615840;54;20181;-77
2022/03/05 10:11:21;;;;;;;3.70;3.40;;;;;;;3.05;56.26;94078.38;2615604;47;20503;-72
2022/03/05 10:13:50;;;;;;;6.07;4.47;;;;;;;4.00;56.53;94278.44;2615457;47;20157;-72
2022/03/05 10:16:32;;;;;;;2.93;2.77;;;;;;;3.76;58.16;94253.47;2615396;47;20600;-74
2022/03/05 10:19:18;;;;;;;6.63;5.53;;;;;;;2.76;57.59;94166.41;2615688;54;20173;-73
2022/03/05 10:21:58;;;;;;;1.20;1.20;;;;;;;4.04;56.96;94278.66;2615697;54;20245;-73
